Time;durP1;ratioP1;P1;durP2;ratioP2;P2;SDS_P1;SDS_P2;PMS_P1;PMS_P2;Temp;Humidity;BMP_temperature;BMP_pressure;BME280_temperature;BME280_humidity;BME280_pressure;Samples;Min_cycle;Max_cycle;Signal;HPM_P1;HPM_P2
2023/09/06 00:01:16;;;;;;;3.00;2.70;;;21.90;67.80;;;;;;5015949;28;20026;-68
2023/09/06 00:03:42;;;;;;;4.72;3.05;;;21.90;68.00;;;;;;5015741;28;20025;-69
2023/09/06 00:06:08;;;;;;;4.38;2.92;;;21.80;68.00;;;;;;5015666;28;20030;-69
2023/09/06 00:08:33;;;;;;;4.82;2.95;;;21.80;67.90;;;;;;5015963;28;20037;-68
2023/09/06 00:11:04;;;;;;;4.55;2.83;;;21.80;68.30;;;;;;5015534;28;20046;-68
2023/09/06 00:13:32;;;;;;;4.70;3.10;;;21.80;68.40;;;;;;5014543;28;20125;-69
2023/09/06 00:15:58;;;;;;;5.75;3.33;;;21.70;68.20;;;;;;5015616;28;20478;-68
2023/09/06 00:18:23;;;;;;;5.80;3.30;;;21.70;68.30;;;;;;5015533;28;20382;-68
2023/09/06 00:20:49;;;;;;;4.43;2.95;;;21.70;68.20;;;;;;5015424;28;20025;-70
2023/09/06 00:23:17;;;;;;;3.33;3.00;;;21.70;68.60;;;;;;5015302;28;20351;-69
2023/09/06 00:25:43;;;;;;;6.15;3.40;;;21.70;68.80;;;;;;5015449;28;20497;-68
2023/09/06 00:28:09;;;;;;;9.18;3.65;;;21.60;69.00;;;;;;5015281;28;20041;-68
2023/09/06 00:30:35;;;;;;;6.63;3.35;;;21.60;69.30;;;;;;5015478;28;20022;-68
2023/09/06 00:33:05;;;;;;;4.78;3.53;;;21.60;69.50;;;;;;5015298;28;20038;-69
2023/09/06 00:35:32;;;;;;;3.67;3.28;;;21.60;69.50;;;;;;5015242;28;20153;-68
2023/09/06 00:38:00;;;;;;;4.82;2.92;;;21.60;69.80;;;;;;5014042;28;20456;-68
2023/09/06 00:40:26;;;;;;;5.57;2.88;;;21.50;69.90;;;;;;5015150;28;20018;-68
2023/09/06 00:42:59;;;;;;;5.70;3.22;;;21.50;70.20;;;;;;5015099;28;20429;-68
2023/09/06 00:45:29;;;;;;;4.53;3.28;;;21.50;70.40;;;;;;5014864;28;20037;-68
2023/09/06 00:47:56;;;;;;;5.53;3.17;;;21.50;70.60;;;;;;5014883;28;20042;-68
2023/09/06 00:50:23;;;;;;;4.40;3.10;;;21.50;70.60;;;;;;5014883;28;20381;-68
2023/09/06 00:52:51;;;;;;;6.13;2.95;;;21.40;70.70;;;;;;5015013;28;20096;-69
2023/09/06 00:55:17;;;;;;;6.72;3.33;;;21.50;70.80;;;;;;5014730;28;20030;-68
2023/09/06 00:57:44;;;;;;;6.15;3.08;;;21.50;70.40;;;;;;5013827;28;20026;-69
2023/09/06 01:00:17;;;;;;;6.65;3.30;;;21.50;70.50;;;;;;5012122;28;20030;-69
2023/09/06 01:02:42;;;;;;;4.47;3.35;;;21.50;70.40;;;;;;5011973;28;20084;-69
2023/09/06 01:05:09;;;;;;;6.28;3.30;;;21.50;70.50;;;;;;5013453;28;20022;-69
2023/09/06 01:07:37;;;;;;;4.85;3.35;;;21.40;70.70;;;;;;5014231;28;20029;-67
2023/09/06 01:10:03;;;;;;;4.47;3.33;;;21.40;71.00;;;;;;5014171;28;20092;-68
2023/09/06 01:12:29;;;;;;;5.72;3.30;;;21.40;71.40;;;;;;5014409;28;20045;-68
2023/09/06 01:14:55;;;;;;;5.80;3.35;;;21.40;71.40;;;;;;5014202;28;20481;-70
2023/09/06 01:17:24;;;;;;;7.18;3.35;;;21.30;71.50;;;;;;5014130;28;20053;-68
2023/09/06 01:19:54;;;;;;;4.18;2.80;;;21.30;71.90;;;;;;5014812;28;20472;-68
2023/09/06 01:22:35;;;;;;;4.75;2.80;;;21.30;71.40;;;;;;5014055;28;20084;-69
2023/09/06 01:25:02;;;;;;;7.68;3.35;;;21.30;71.30;;;;;;5014406;28;20026;-70
2023/09/06 01:27:28;;;;;;;5.00;3.55;;;21.30;70.80;;;;;;5013591;28;20367;-68
2023/09/06 01:29:54;;;;;;;3.83;3.28;;;21.30;70.80;;;;;;5013843;28;20041;-68
2023/09/06 01:32:19;;;;;;;4.00;2.83;;;21.20;71.00;;;;;;5014082;28;20022;-68
2023/09/06 01:34:45;;;;;;;5.57;2.80;;;21.20;71.20;;;;;;5014261;28;20489;-68
2023/09/06 01:37:11;;;;;;;5.22;3.08;;;21.10;71.30;;;;;;5013653;28;20025;-68
2023/09/06 01:39:36;;;;;;;8.75;3.25;;;21.10;71.60;;;;;;5014071;28;20483;-69
2023/09/06 01:42:02;;;;;;;6.25;3.08;;;21.00;72.20;;;;;;5013893;28;20030;-69
2023/09/06 01:44:28;;;;;;;4.72;2.90;;;21.00;72.30;;;;;;5014044;28;20028;-68
2023/09/06 01:46:54;;;;;;;4.40;3.10;;;21.00;72.50;;;;;;5013885;28;20042;-68
2023/09/06 01:49:19;;;;;;;8.25;3.92;;;20.90;72.90;;;;;;5013894;28;20022;-68
2023/09/06 01:51:45;;;;;;;5.60;3.13;;;20.90;72.80;;;;;;5013742;28;20046;-69
2023/09/06 01:54:11;;;;;;;5.47;2.95;;;20.90;72.70;;;;;;5013636;28;20049;-68
2023/09/06 01:56:37;;;;;;;4.80;3.03;;;20.90;72.70;;;;;;5013588;28;20022;-69
2023/09/06 01:59:03;;;;;;;4.10;3.20;;;20.80;73.00;;;;;;5013540;28;20552;-69
2023/09/06 02:01:30;;;;;;;3.83;2.50;;;20.80;73.20;;;;;;5013498;28;20022;-69
2023/09/06 02:03:55;;;;;;;5.88;2.92;;;20.80;73.50;;;;;;5013526;28;20455;-68
2023/09/06 02:06:21;;;;;;;7.85;3.20;;;20.80;73.50;;;;;;5013196;28;20035;-68
2023/09/06 02:08:47;;;;;;;4.55;2.85;;;20.70;73.90;;;;;;5013457;28;20390;-69
2023/09/06 02:11:13;;;;;;;4.28;3.03;;;20.80;74.20;;;;;;5013299;28;20054;-68
2023/09/06 02:13:39;;;;;;;3.95;3.05;;;20.80;74.80;;;;;;5013369;28;20435;-68
2023/09/06 02:16:06;;;;;;;5.18;2.75;;;20.70;73.90;;;;;;5013401;28;20367;-68
2023/09/06 02:18:32;;;;;;;5.85;3.05;;;20.70;73.70;;;;;;5013628;28;20044;-69
2023/09/06 02:20:58;;;;;;;5.40;2.80;;;20.60;74.00;;;;;;5013426;28;20530;-69
2023/09/06 02:23:24;;;;;;;5.57;2.83;;;20.60;74.40;;;;;;5013225;28;20018;-68
2023/09/06 02:25:50;;;;;;;6.18;2.85;;;20.60;74.80;;;;;;5013313;28;20086;-69
2023/09/06 02:28:17;;;;;;;6.82;3.05;;;20.60;74.70;;;;;;5012555;28;20383;-68
2023/09/06 02:30:43;;;;;;;4.82;2.72;;;20.60;74.60;;;;;;5013113;28;20022;-68
2023/09/06 02:33:13;;;;;;;4.35;3.20;;;20.60;74.30;;;;;;5013317;28;20025;-68
2023/09/06 02:35:40;;;;;;;5.50;3.10;;;20.60;74.60;;;;;;5013164;28;20014;-68
2023/09/06 02:38:10;;;;;;;4.05;2.78;;;20.60;75.00;;;;;;5011784;28;20064;-69
2023/09/06 02:40:37;;;;;;;6.63;3.45;;;20.60;74.80;;;;;;5010249;28;20105;-68
2023/09/06 02:43:04;;;;;;;4.85;3.22;;;20.60;74.80;;;;;;5011260;28;20030;-68
2023/09/06 02:45:36;;;;;;;11.10;3.55;;;20.60;74.60;;;;;;5013086;28;20018;-68
2023/09/06 02:48:06;;;;;;;6.60;2.60;;;20.60;74.40;;;;;;5013013;28;20034;-69
2023/09/06 02:50:36;;;;;;;5.07;3.20;;;20.60;74.10;;;;;;5012988;28;20048;-68
2023/09/06 02:53:03;;;;;;;4.80;3.00;;;20.60;73.90;;;;;;5013125;28;20454;-68
2023/09/06 02:55:33;;;;;;;5.38;2.65;;;20.60;73.90;;;;;;5013065;28;20026;-68
2023/09/06 02:57:59;;;;;;;3.65;2.90;;;20.70;73.70;;;;;;5013045;28;20034;-68
2023/09/06 03:00:25;;;;;;;7.47;3.78;;;20.70;73.70;;;;;;5013319;28;20426;-68
2023/09/06 03:02:59;;;;;;;5.20;2.80;;;20.60;73.50;;;;;;5013021;28;20088;-69
2023/09/06 03:05:27;;;;;;;3.40;2.88;;;20.60;73.70;;;;;;5013037;28;20029;-68
2023/09/06 03:07:53;;;;;;;4.70;2.65;;;20.60;73.70;;;;;;5012821;28;20053;-68
2023/09/06 03:10:20;;;;;;;4.10;2.85;;;20.50;73.70;;;;;;5012851;28;20050;-68
2023/09/06 03:13:09;;;;;;;5.75;2.63;;;20.50;73.60;;;;;;5012899;28;20022;-69
2023/09/06 03:15:35;;;;;;;3.47;2.83;;;20.50;73.80;;;;;;5013042;28;20026;-68
2023/09/06 03:18:02;;;;;;;3.63;3.03;;;20.50;74.00;;;;;;5011339;28;20397;-69
2023/09/06 03:20:33;;;;;;;6.28;3.30;;;20.50;74.00;;;;;;5012775;28;20022;-68
2023/09/06 03:23:16;;;;;;;5.20;3.50;;;20.50;74.70;;;;;;5013046;28;20026;-68
2023/09/06 03:25:54;;;;;;;8.00;3.70;;;20.50;74.00;;;;;;5012668;28;20030;-68
2023/09/06 03:28:21;;;;;;;5.45;4.00;;;20.50;73.70;;;;;;5012665;28;20034;-69
2023/09/06 03:30:47;;;;;;;4.90;3.97;;;20.50;73.70;;;;;;5012700;28;20175;-69
2023/09/06 03:33:13;;;;;;;5.25;4.28;;;20.50;73.90;;;;;;5012886;28;20105;-68
2023/09/06 03:35:39;;;;;;;8.93;4.60;;;20.40;74.20;;;;;;5012557;28;20022;-68
2023/09/06 03:38:10;;;;;;;8.75;4.32;;;20.40;74.10;;;;;;5013015;28;20114;-68
2023/09/06 03:40:37;;;;;;;8.82;4.65;;;20.50;74.10;;;;;;5016361;28;20018;-68
2023/09/06 03:43:19;;;;;;;6.90;4.90;;;20.40;74.00;;;;;;5016223;28;20029;-69
2023/09/06 03:45:51;;;;;;;5.78;4.47;;;20.40;74.10;;;;;;5016198;28;20037;-68
2023/09/06 03:48:19;;;;;;;6.10;4.10;;;20.40;73.90;;;;;;5016108;28;20045;-68
2023/09/06 03:50:46;;;;;;;7.72;4.30;;;20.40;73.90;;;;;;5016195;28;20501;-68
2023/09/06 03:53:13;;;;;;;4.95;4.03;;;20.40;73.90;;;;;;5015991;28;20034;-69
2023/09/06 03:55:41;;;;;;;4.78;4.00;;;20.50;73.80;;;;;;5015998;28;20022;-68
2023/09/06 03:58:07;;;;;;;5.07;4.05;;;20.40;74.10;;;;;;5015920;28;20455;-69
2023/09/06 04:00:33;;;;;;;7.32;3.80;;;20.40;74.70;;;;;;5016069;28;20033;-68
2023/09/06 04:02:59;;;;;;;4.72;3.90;;;20.40;74.60;;;;;;5015903;28;20029;-69
2023/09/06 04:05:26;;;;;;;5.55;4.00;;;20.40;74.30;;;;;;5015594;28;20025;-68
2023/09/06 04:07:56;;;;;;;6.45;4.28;;;20.40;74.40;;;;;;5015648;28;20046;-68
2023/09/06 04:10:36;;;;;;;9.43;3.90;;;20.40;74.70;;;;;;5015638;28;20512;-68
2023/09/06 04:13:02;;;;;;;10.10;4.00;;;20.40;74.80;;;;;;5014411;28;20034;-69
2023/09/06 04:15:29;;;;;;;5.60;4.20;;;20.30;74.90;;;;;;5015368;28;20101;-68
2023/09/06 04:18:00;;;;;;;8.35;3.80;;;20.30;75.10;;;;;;5015672;28;20029;-68
2023/09/06 04:20:35;;;;;;;8.77;3.75;;;20.30;75.30;;;;;;5015495;28;20045;-69
2023/09/06 04:23:01;;;;;;;6.43;3.60;;;20.30;75.40;;;;;;5015503;28;20042;-68
2023/09/06 04:25:28;;;;;;;15.15;4.15;;;20.20;75.00;;;;;;5015491;28;20034;-68
2023/09/06 04:27:54;;;;;;;10.65;4.50;;;20.20;75.30;;;;;;5015215;28;20092;-68
2023/09/06 04:30:24;;;;;;;5.28;3.88;;;20.20;75.50;;;;;;5015246;28;20014;-69
2023/09/06 04:32:53;;;;;;;11.07;4.25;;;20.20;75.70;;;;;;5015267;28;20030;-70
2023/09/06 04:35:18;;;;;;;7.30;3.50;;;20.10;75.70;;;;;;5015122;28;20022;-68
2023/09/06 04:37:45;;;;;;;5.68;3.13;;;20.10;76.00;;;;;;5015290;28;20169;-68
2023/09/06 04:40:12;;;;;;;7.03;3.58;;;20.00;76.10;;;;;;5015246;28;20022;-68
2023/09/06 04:42:42;;;;;;;5.68;3.92;;;20.00;76.40;;;;;;5015798;28;20378;-68
2023/09/06 04:45:11;;;;;;;6.03;3.50;;;20.00;76.50;;;;;;5014904;28;20018;-69
2023/09/06 04:47:43;;;;;;;7.07;3.78;;;20.00;76.50;;;;;;5014956;28;20041;-68
2023/09/06 04:50:11;;;;;;;6.13;3.47;;;20.00;76.50;;;;;;5014041;28;20092;-69
2023/09/06 04:52:43;;;;;;;6.68;3.55;;;20.00;76.50;;;;;;5015036;28;20478;-68
2023/09/06 04:55:09;;;;;;;8.73;3.28;;;19.90;76.50;;;;;;5014599;28;20030;-68
2023/09/06 04:57:37;;;;;;;9.13;3.80;;;19.90;76.80;;;;;;5015010;28;20018;-68
2023/09/06 05:00:23;;;;;;;5.72;3.30;;;19.90;77.20;;;;;;5014848;28;20413;-69
2023/09/06 05:02:51;;;;;;;7.97;4.25;;;19.90;77.20;;;;;;5014888;28;20051;-67
2023/09/06 05:05:18;;;;;;;8.82;3.67;;;19.90;77.10;;;;;;5014856;28;20064;-67
2023/09/06 05:07:46;;;;;;;5.03;3.45;;;19.90;77.40;;;;;;5014573;28;20038;-68
2023/09/06 05:10:12;;;;;;;5.70;3.42;;;19.90;77.70;;;;;;5014498;28;20042;-68
2023/09/06 05:12:39;;;;;;;9.75;3.92;;;19.90;77.80;;;;;;5014602;28;20036;-68
2023/09/06 05:15:05;;;;;;;24.63;4.35;;;19.90;78.10;;;;;;5014688;28;20018;-68
2023/09/06 05:17:32;;;;;;;8.75;3.63;;;19.90;78.30;;;;;;5014586;28;20084;-68
2023/09/06 05:20:32;;;;;;;5.55;3.70;;;19.90;78.30;;;;;;5014455;28;20022;-67
2023/09/06 05:23:03;;;;;;;9.35;3.85;;;19.90;78.30;;;;;;5014244;28;20076;-68
2023/09/06 05:25:30;;;;;;;9.85;3.67;;;19.90;78.40;;;;;;5014396;28;20104;-68
2023/09/06 05:28:01;;;;;;;13.07;3.47;;;19.80;78.40;;;;;;5014420;28;20026;-68
2023/09/06 05:30:27;;;;;;;14.83;3.93;;;19.80;78.50;;;;;;5012891;28;20389;-68
2023/09/06 05:32:56;;;;;;;13.32;3.67;;;19.80;78.90;;;;;;5014142;28;20272;-68
2023/09/06 05:35:23;;;;;;;9.60;3.42;;;19.80;80.00;;;;;;5013021;28;20018;-69
2023/09/06 05:37:49;;;;;;;9.38;3.42;;;19.80;79.50;;;;;;5014109;28;20038;-69
2023/09/06 05:40:16;;;;;;;8.55;3.95;;;19.80;79.50;;;;;;5013991;28;20512;-68
2023/09/06 05:42:42;;;;;;;10.52;3.45;;;19.80;79.50;;;;;;5014069;28;20026;-69
2023/09/06 05:45:13;;;;;;;12.15;3.78;;;19.80;79.70;;;;;;5013956;28;20101;-69
2023/09/06 05:47:39;;;;;;;10.15;3.60;;;19.80;80.30;;;;;;5013843;28;20045;-69
2023/09/06 05:50:06;;;;;;;13.80;3.58;;;19.90;80.60;;;;;;5013762;28;20030;-67
2023/09/06 05:52:32;;;;;;;7.35;3.78;;;19.90;81.00;;;;;;5014007;28;20370;-68
2023/09/06 05:54:58;;;;;;;7.57;3.80;;;19.90;82.10;;;;;;5013816;28;20386;-68
2023/09/06 05:57:24;;;;;;;5.28;3.15;;;19.90;81.80;;;;;;5012475;28;20092;-69
2023/09/06 05:59:50;;;;;;;7.32;3.20;;;20.00;82.10;;;;;;5013611;28;20073;-68
2023/09/06 06:02:16;;;;;;;5.47;3.10;;;20.00;82.10;;;;;;5013503;28;20443;-69
2023/09/06 06:04:45;;;;;;;10.70;3.22;;;20.10;82.10;;;;;;5013623;28;20030;-68
2023/09/06 06:07:11;;;;;;;10.45;3.72;;;20.10;81.80;;;;;;5013630;28;20121;-68
2023/09/06 06:09:37;;;;;;;5.75;3.30;;;20.10;82.00;;;;;;5013585;28;20363;-68
2023/09/06 06:12:03;;;;;;;6.43;3.78;;;20.20;82.60;;;;;;5013350;28;20091;-69
2023/09/06 06:14:30;;;;;;;10.35;4.05;;;20.30;83.00;;;;;;5013287;28;20250;-68
2023/09/06 06:16:57;;;;;;;5.75;4.30;;;20.30;83.40;;;;;;5013326;28;20462;-68
2023/09/06 06:19:23;;;;;;;14.18;4.10;;;20.40;83.60;;;;;;5013524;28;20050;-68
2023/09/06 06:21:50;;;;;;;8.57;3.92;;;20.40;83.70;;;;;;5013068;28;20026;-69
2023/09/06 06:24:16;;;;;;;5.80;3.97;;;20.50;84.00;;;;;;5013421;28;20022;-68
2023/09/06 06:26:41;;;;;;;5.95;3.38;;;20.50;84.10;;;;;;5013552;28;20052;-68
2023/09/06 06:29:07;;;;;;;8.98;3.67;;;20.60;84.00;;;;;;5013411;28;20129;-68
2023/09/06 06:31:33;;;;;;;7.78;3.22;;;20.60;83.80;;;;;;5013250;28;20501;-68
2023/09/06 06:33:59;;;;;;;8.20;3.22;;;20.60;83.40;;;;;;5013379;28;20030;-68
2023/09/06 06:36:26;;;;;;;5.95;3.35;;;20.70;83.60;;;;;;5013264;28;20029;-68
2023/09/06 06:38:52;;;;;;;4.32;2.33;;;20.70;83.90;;;;;;5013260;28;20034;-68
2023/09/06 06:41:22;;;;;;;6.45;2.70;;;20.80;83.40;;;;;;5013337;28;20530;-68
2023/09/06 06:43:49;;;;;;;6.75;3.08;;;20.90;82.70;;;;;;5013237;28;20485;-68
2023/09/06 06:46:26;;;;;;;3.58;2.38;;;21.00;82.00;;;;;;5013548;28;20113;-68
2023/09/06 06:48:52;;;;;;;6.75;2.42;;;21.00;81.60;;;;;;5013172;28;20049;-68
2023/09/06 06:51:18;;;;;;;5.03;2.92;;;21.10;80.90;;;;;;5011617;28;20026;-68
2023/09/06 06:53:43;;;;;;;6.95;2.50;;;21.10;80.00;;;;;;5013201;28;20037;-70
2023/09/06 06:56:09;;;;;;;7.25;2.67;;;21.20;80.10;;;;;;5012976;28;20069;-68
2023/09/06 06:58:34;;;;;;;5.22;2.67;;;21.30;79.90;;;;;;5012832;28;20374;-69
2023/09/06 07:01:00;;;;;;;4.50;2.47;;;21.30;79.50;;;;;;5012652;28;20117;-68
2023/09/06 07:03:26;;;;;;;9.98;2.75;;;21.40;79.40;;;;;;5027889;28;20026;-68
2023/09/06 07:05:52;;;;;;;4.40;2.28;;;21.40;79.40;;;;;;5012167;28;20018;-68
2023/09/06 07:08:18;;;;;;;6.28;2.50;;;21.50;79.20;;;;;;5012355;28;20033;-68
2023/09/06 07:10:43;;;;;;;3.33;2.05;;;21.50;78.50;;;;;;5012557;28;20064;-68
2023/09/06 07:13:09;;;;;;;5.18;2.38;;;21.60;78.10;;;;;;5013116;28;20038;-68
2023/09/06 07:15:35;;;;;;;6.15;2.22;;;21.70;77.80;;;;;;5016684;28;20639;-68
2023/09/06 07:18:04;;;;;;;8.57;2.55;;;21.70;77.40;;;;;;5016626;28;20025;-69
2023/09/06 07:20:30;;;;;;;4.85;2.50;;;21.80;77.50;;;;;;5016469;28;20029;-68
2023/09/06 07:22:56;;;;;;;3.90;2.63;;;21.80;77.80;;;;;;5016364;28;20030;-69
2023/09/06 07:25:21;;;;;;;3.78;2.50;;;21.90;77.80;;;;;;5016487;28;20037;-69
2023/09/06 07:27:47;;;;;;;8.50;2.47;;;22.00;77.50;;;;;;5016290;28;20030;-68
2023/09/06 07:30:13;;;;;;;8.13;2.35;;;22.00;77.50;;;;;;5016441;28;20061;-68
2023/09/06 07:32:38;;;;;;;7.45;2.55;;;22.10;77.30;;;;;;5016365;28;20021;-69
2023/09/06 07:35:06;;;;;;;5.88;2.10;;;22.10;76.70;;;;;;5016379;28;20501;-68
2023/09/06 07:37:31;;;;;;;3.38;2.40;;;22.30;76.40;;;;;;5016504;28;20386;-68
2023/09/06 07:40:00;;;;;;;6.40;2.40;;;22.30;76.30;;;;;;5016340;28;20026;-69
2023/09/06 07:42:26;;;;;;;4.55;2.45;;;22.30;76.60;;;;;;5016307;28;20474;-69
2023/09/06 07:44:52;;;;;;;4.85;2.70;;;22.30;76.60;;;;;;5016170;28;20449;-68
2023/09/06 07:47:18;;;;;;;4.25;2.42;;;22.40;76.50;;;;;;5015957;28;20130;-68
2023/09/06 07:49:43;;;;;;;15.57;3.70;;;22.50;75.90;;;;;;5016124;28;20022;-69
2023/09/06 07:52:09;;;;;;;11.60;3.15;;;22.50;75.80;;;;;;5015883;28;20026;-69
2023/09/06 07:54:35;;;;;;;6.00;2.70;;;22.60;76.10;;;;;;5015560;28;20022;-69
2023/09/06 07:57:00;;;;;;;3.80;2.03;;;22.60;75.60;;;;;;5015877;28;20033;-69
2023/09/06 07:59:26;;;;;;;17.08;3.78;;;22.70;75.00;;;;;;5015763;28;20033;-68
2023/09/06 08:01:53;;;;;;;3.53;2.25;;;22.80;74.60;;;;;;5015767;28;20030;-68
2023/09/06 08:04:19;;;;;;;4.95;2.40;;;22.80;74.80;;;;;;5015674;28;20022;-68
2023/09/06 08:06:48;;;;;;;5.13;2.47;;;22.90;74.90;;;;;;5015587;28;20486;-68
2023/09/06 08:09:14;;;;;;;4.40;2.65;;;23.00;74.00;;;;;;5015492;28;20057;-68
2023/09/06 08:11:39;;;;;;;5.15;2.80;;;23.00;73.40;;;;;;5015289;28;20078;-68
2023/09/06 08:14:05;;;;;;;5.20;2.38;;;23.10;73.60;;;;;;5015579;28;20017;-69
2023/09/06 08:16:31;;;;;;;6.88;2.45;;;23.20;73.40;;;;;;5015576;28;20470;-68
2023/09/06 08:18:57;;;;;;;5.15;2.47;;;23.20;73.50;;;;;;5015469;28;20101;-68
2023/09/06 08:21:22;;;;;;;4.50;2.50;;;23.30;73.40;;;;;;5015439;28;20100;-68
2023/09/06 08:23:48;;;;;;;6.85;2.30;;;23.30;72.90;;;;;;5015435;28;20057;-69
2023/09/06 08:26:14;;;;;;;3.15;2.22;;;23.40;72.80;;;;;;5015589;28;20029;-69
2023/09/06 08:28:40;;;;;;;4.63;2.30;;;23.40;72.00;;;;;;5015373;28;20041;-69
2023/09/06 08:31:06;;;;;;;6.03;2.38;;;23.50;71.80;;;;;;5015401;28;20497;-69
2023/09/06 08:33:32;;;;;;;6.10;2.20;;;23.50;71.40;;;;;;5014947;28;20041;-68
2023/09/06 08:36:00;;;;;;;3.22;2.03;;;23.60;71.60;;;;;;5015081;28;20022;-68
2023/09/06 08:38:26;;;;;;;3.10;2.25;;;23.70;71.70;;;;;;5015049;28;20393;-69
2023/09/06 08:40:52;;;;;;;4.85;2.30;;;23.70;71.70;;;;;;5014976;28;20092;-68
2023/09/06 08:43:19;;;;;;;6.00;2.00;;;23.70;69.50;;;;;;5015124;28;20425;-68
2023/09/06 08:45:47;;;;;;;3.13;2.00;;;23.80;68.90;;;;;;5014917;28;20081;-69
2023/09/06 08:48:14;;;;;;;5.18;1.90;;;23.80;67.80;;;;;;5015064;28;20041;-68
2023/09/06 08:50:40;;;;;;;2.60;1.88;;;23.90;67.90;;;;;;5015010;28;20028;-68
2023/09/06 08:53:10;;;;;;;2.75;1.92;;;24.00;67.50;;;;;;5014880;28;20080;-69
2023/09/06 08:55:36;;;;;;;4.28;2.30;;;24.00;67.10;;;;;;5014720;28;20084;-68
2023/09/06 08:58:05;;;;;;;2.47;1.85;;;24.00;66.50;;;;;;5014759;28;20036;-68
2023/09/06 09:00:31;;;;;;;3.83;1.90;;;24.10;66.00;;;;;;5015003;28;20359;-68
2023/09/06 09:02:58;;;;;;;5.75;2.20;;;24.10;65.60;;;;;;5014573;28;20041;-68
2023/09/06 09:05:23;;;;;;;2.88;2.00;;;24.20;65.40;;;;;;5014682;28;20050;-69
2023/09/06 09:07:58;;;;;;;7.65;1.83;;;24.20;65.20;;;;;;5014437;28;20403;-68
2023/09/06 09:10:27;;;;;;;2.42;1.83;;;24.30;66.20;;;;;;5014559;28;20402;-68
2023/09/06 09:12:56;;;;;;;5.32;2.10;;;24.30;66.00;;;;;;5014610;28;20033;-68
2023/09/06 09:15:25;;;;;;;5.85;2.38;;;24.40;66.50;;;;;;5014515;28;20398;-68
2023/09/06 09:17:51;;;;;;;4.25;2.30;;;24.50;67.70;;;;;;5014654;28;20026;-69
2023/09/06 09:20:18;;;;;;;6.57;2.28;;;24.50;67.90;;;;;;5014308;28;20026;-68
2023/09/06 09:22:45;;;;;;;6.50;2.72;;;24.60;68.20;;;;;;5014390;28;20029;-69
2023/09/06 09:25:17;;;;;;;8.80;5.38;;;24.70;69.00;;;;;;5014309;28;20048;-69
2023/09/06 09:27:47;;;;;;;4.50;2.33;;;24.80;67.90;;;;;;5014256;28;20030;-68
2023/09/06 09:30:16;;;;;;;7.10;2.05;;;24.80;66.20;;;;;;5014398;28;20382;-68
2023/09/06 09:32:42;;;;;;;9.27;2.60;;;24.80;65.80;;;;;;5014286;28;20026;-68
2023/09/06 09:35:12;;;;;;;9.30;3.80;;;24.90;66.20;;;;;;5014023;28;20025;-69
2023/09/06 09:37:42;;;;;;;6.65;3.03;;;24.90;66.30;;;;;;5013805;28;20030;-68
2023/09/06 09:40:18;;;;;;;4.45;2.40;;;25.00;66.20;;;;;;5014089;28;20029;-69
2023/09/06 09:42:58;;;;;;;2.88;2.03;;;25.10;65.70;;;;;;5014247;28;20030;-70
2023/09/06 09:45:25;;;;;;;3.60;2.30;;;25.10;64.90;;;;;;5013907;28;20050;-68
2023/09/06 09:47:55;;;;;;;4.05;2.35;;;25.10;64.00;;;;;;5014121;28;20038;-70
2023/09/06 09:50:33;;;;;;;2.85;1.80;;;25.20;64.80;;;;;;5013933;28;20056;-70
2023/09/06 09:53:02;;;;;;;5.70;2.10;;;25.20;62.90;;;;;;5013973;28;20022;-69
2023/09/06 09:55:32;;;;;;;6.00;1.90;;;25.30;63.50;;;;;;5013925;28;20087;-70
2023/09/06 09:58:05;;;;;;;4.45;2.00;;;25.30;64.00;;;;;;5013838;28;20030;-70
2023/09/06 10:00:32;;;;;;;6.00;1.90;;;25.40;64.20;;;;;;5013791;28;20064;-70
2023/09/06 10:02:58;;;;;;;3.30;1.90;;;25.50;63.40;;;;;;5013739;28;20093;-69
2023/09/06 10:05:29;;;;;;;4.45;2.10;;;25.50;63.50;;;;;;5013783;28;20041;-70
2023/09/06 10:07:55;;;;;;;4.50;2.10;;;25.60;63.80;;;;;;5013615;28;20044;-71
2023/09/06 10:10:23;;;;;;;2.35;2.00;;;25.70;63.80;;;;;;5013403;28;20411;-70
2023/09/06 10:12:51;;;;;;;2.72;1.98;;;25.70;62.50;;;;;;5013536;28;20049;-69
2023/09/06 10:15:23;;;;;;;5.55;1.85;;;25.80;63.00;;;;;;5013548;28;20026;-70
2023/09/06 10:17:51;;;;;;;6.38;1.95;;;25.90;63.80;;;;;;5012660;28;20389;-70
2023/09/06 10:20:23;;;;;;;3.40;1.90;;;26.00;63.30;;;;;;5013404;28;20030;-70
2023/09/06 10:22:52;;;;;;;4.78;1.83;;;26.00;61.60;;;;;;5013232;28;20057;-70
2023/09/06 10:25:18;;;;;;;3.15;1.92;;;26.10;61.50;;;;;;5013400;28;20152;-70
2023/09/06 10:27:49;;;;;;;2.58;1.77;;;26.10;59.90;;;;;;5013280;28;20037;-69
2023/09/06 10:30:18;;;;;;;3.35;2.17;;;26.10;59.90;;;;;;5013320;28;20030;-70
2023/09/06 10:32:46;;;;;;;5.72;3.67;;;26.20;61.50;;;;;;5013194;28;20062;-70
2023/09/06 10:35:29;;;;;;;8.43;4.13;;;26.30;60.90;;;;;;5013255;28;20422;-70
2023/09/06 10:38:04;;;;;;;4.78;1.92;;;26.30;61.20;;;;;;5012164;28;20026;-70
2023/09/06 10:40:51;;;;;;;3.90;1.90;;;26.30;59.70;;;;;;5013511;28;20030;-70
2023/09/06 10:43:18;;;;;;;3.28;2.00;;;26.40;59.90;;;;;;5013100;28;20028;-70
2023/09/06 10:46:08;;;;;;;5.28;1.85;;;26.40;58.90;;;;;;5012996;28;20076;-70
2023/09/06 10:48:33;;;;;;;4.65;1.80;;;26.40;58.10;;;;;;5014244;28;20030;-70
2023/09/06 10:51:09;;;;;;;3.08;2.22;;;26.50;58.90;;;;;;5017314;28;20072;-70
2023/09/06 10:53:40;;;;;;;5.13;2.03;;;26.50;59.50;;;;;;5017383;28;20033;-70
2023/09/06 10:56:07;;;;;;;2.03;1.45;;;26.60;60.40;;;;;;5017251;28;20467;-71
2023/09/06 10:58:37;;;;;;;4.38;2.28;;;26.70;60.00;;;;;;5016807;28;20156;-70
2023/09/06 11:01:13;;;;;;;2.80;1.90;;;26.70;59.20;;;;;;5017080;28;20037;-71
2023/09/06 11:03:40;;;;;;;4.68;2.10;;;26.80;58.70;;;;;;5017143;28;20120;-70
2023/09/06 11:06:05;;;;;;;5.22;1.90;;;26.80;58.10;;;;;;5017165;28;20366;-70
2023/09/06 11:08:32;;;;;;;3.95;1.55;;;26.90;57.30;;;;;;5017195;28;20124;-70
2023/09/06 11:11:07;;;;;;;6.22;1.88;;;26.90;59.10;;;;;;5016315;28;20042;-70
2023/09/06 11:13:34;;;;;;;3.50;1.77;;;27.00;58.60;;;;;;5017065;28;20022;-70
2023/09/06 11:16:00;;;;;;;4.57;1.75;;;27.00;58.20;;;;;;5017042;28;20025;-70
2023/09/06 11:18:27;;;;;;;4.25;1.60;;;27.10;58.00;;;;;;5016907;28;20115;-70
2023/09/06 11:20:54;;;;;;;6.30;1.83;;;27.10;57.30;;;;;;5016575;28;20121;-70
2023/09/06 11:23:19;;;;;;;4.93;1.88;;;27.10;57.00;;;;;;5016804;28;20390;-70
2023/09/06 11:25:45;;;;;;;3.22;1.40;;;27.20;56.90;;;;;;5016894;28;20022;-71
2023/09/06 11:28:21;;;;;;;6.88;1.63;;;27.20;57.20;;;;;;5016576;28;20108;-70
2023/09/06 11:30:47;;;;;;;3.63;1.92;;;27.20;57.40;;;;;;5016610;28;20053;-70
2023/09/06 11:33:16;;;;;;;3.03;1.70;;;27.30;57.00;;;;;;5016366;28;20034;-70
2023/09/06 11:35:48;;;;;;;3.08;1.50;;;27.40;58.00;;;;;;5016365;28;20026;-70
2023/09/06 11:38:17;;;;;;;2.88;1.63;;;27.40;56.40;;;;;;5016418;28;20050;-70
2023/09/06 11:40:44;;;;;;;5.88;1.85;;;27.50;57.40;;;;;;5016254;28;20033;-71
2023/09/06 11:43:12;;;;;;;3.80;1.85;;;27.60;56.80;;;;;;5016043;28;20026;-70
2023/09/06 11:45:41;;;;;;;2.92;1.80;;;27.60;56.60;;;;;;5016462;28;20022;-70
2023/09/06 11:48:10;;;;;;;4.78;1.60;;;27.70;57.30;;;;;;5016045;28;20026;-66
2023/09/06 11:50:40;;;;;;;2.47;1.60;;;27.80;56.60;;;;;;5015995;28;20386;-70
2023/09/06 11:53:09;;;;;;;3.63;1.83;;;27.90;55.40;;;;;;5016062;28;20083;-70
2023/09/06 11:55:39;;;;;;;3.33;1.60;;;27.90;54.70;;;;;;5016195;28;20089;-70
2023/09/06 11:58:14;;;;;;;2.85;1.70;;;27.90;55.40;;;;;;5016119;28;20037;-70
2023/09/06 12:00:45;;;;;;;2.85;1.92;;;28.00;56.00;;;;;;5015641;28;20493;-70
2023/09/06 12:03:16;;;;;;;3.27;1.80;;;28.00;55.70;;;;;;5015955;28;20079;-70
2023/09/06 12:05:46;;;;;;;6.55;1.60;;;28.10;54.80;;;;;;5016153;28;20033;-70
2023/09/06 12:08:17;;;;;;;4.20;1.83;;;28.10;55.10;;;;;;5015799;28;20026;-70
2023/09/06 12:10:52;;;;;;;6.53;1.50;;;28.20;55.30;;;;;;5015773;28;20045;-70
2023/09/06 12:13:29;;;;;;;5.90;1.88;;;28.30;55.80;;;;;;5015650;28;20026;-69
2023/09/06 12:15:58;;;;;;;5.88;1.65;;;28.30;55.10;;;;;;5015616;28;20079;-70
2023/09/06 12:18:28;;;;;;;4.22;1.55;;;28.40;55.30;;;;;;5015771;28;20033;-70
2023/09/06 12:20:54;;;;;;;3.42;1.42;;;28.40;54.10;;;;;;5015548;28;20113;-70
2023/09/06 12:23:20;;;;;;;3.15;1.65;;;28.50;52.90;;;;;;5015656;28;20026;-70
2023/09/06 12:25:47;;;;;;;2.22;1.73;;;28.50;53.90;;;;;;5015463;28;20034;-70
2023/09/06 12:28:13;;;;;;;4.30;1.70;;;28.50;53.90;;;;;;5015599;28;20044;-71
2023/09/06 12:30:39;;;;;;;2.45;1.45;;;28.50;52.40;;;;;;5015524;28;20427;-70
2023/09/06 12:33:05;;;;;;;5.95;1.80;;;28.60;53.30;;;;;;5015154;28;20105;-70
2023/09/06 12:35:38;;;;;;;2.55;1.50;;;28.60;53.50;;;;;;5015431;28;20050;-70
2023/09/06 12:38:06;;;;;;;2.70;1.60;;;28.60;54.10;;;;;;5015094;28;20026;-70
2023/09/06 12:40:32;;;;;;;5.00;1.85;;;28.60;53.00;;;;;;5014860;28;20068;-70
2023/09/06 12:42:59;;;;;;;3.85;1.85;;;28.60;52.50;;;;;;5015227;28;20080;-70
2023/09/06 12:45:30;;;;;;;3.50;1.70;;;28.70;54.00;;;;;;5015296;28;20378;-70
2023/09/06 12:47:59;;;;;;;3.80;1.50;;;28.80;54.40;;;;;;5015090;28;20034;-70
2023/09/06 12:50:25;;;;;;;2.25;1.40;;;28.80;53.10;;;;;;5014895;28;20098;-70